Terminal Aerodrome Forecast
Issued by NWS Sterling, VA

Current Version | Previous Version | Text Only | Print | Product List | Glossary Off
Versions: 1 2 3 4 5 6 7 8 9 10 11 12 13 14 15 16 17 18 19 20 21 22 23 24 25 26 27 28

718
FTUS41 KLWX 190247 AAA
TAFIAD
TAF AMD
KIAD 190247Z 1903/2006 15005KT P6SM BKN100
     FM190500 26005KT P6SM SCT080
     FM191300 33006KT P6SM SCT250
     FM200300 VRB03KT P6SM SCT060=

USA.gov is the U.S. government's official web portal to all federal, state and local government web resources and services.